Time;durP1;ratioP1;P1;durP2;ratioP2;P2;SDS_P1;SDS_P2;PMS_P1;PMS_P2;Temp;Humidity;BMP_temperature;BMP_pressure;BME280_temperature;BME280_humidity;BME280_pressure;Samples;Min_cycle;Max_cycle;Signal;HPM_P1;HPM_P2
2021/07/01 00:00:10;;;;;;;1.23;1.13;;;;;;;14.72;100.00;98547.00;4846894;28;102893;-76
2021/07/01 00:02:38;;;;;;;1.30;1.20;;;;;;;14.70;100.00;98546.31;4854669;28;102744;-77
2021/07/01 00:05:08;;;;;;;1.80;1.30;;;;;;;14.72;100.00;98546.16;4850264;28;104007;-76
2021/07/01 00:07:36;;;;;;;1.50;0.90;;;;;;;14.67;100.00;98540.44;4858833;28;104506;-77
2021/07/01 00:10:07;;;;;;;1.67;0.80;;;;;;;14.68;100.00;98547.44;4851921;28;103139;-76
2021/07/01 00:12:35;;;;;;;1.33;0.90;;;;;;;14.66;100.00;98550.22;4848756;28;103493;-76
2021/07/01 00:15:04;;;;;;;0.87;0.87;;;;;;;14.74;100.00;98546.84;4841322;28;103963;-76
2021/07/01 00:17:33;;;;;;;0.90;0.80;;;;;;;14.86;100.00;98551.06;4850657;28;104667;-76
2021/07/01 00:20:03;;;;;;;0.63;0.63;;;;;;;14.90;99.97;98541.81;4858164;28;103005;-76
2021/07/01 00:22:31;;;;;;;0.70;0.70;;;;;;;14.77;100.00;98557.22;4848401;28;103016;-76
2021/07/01 00:24:59;;;;;;;0.70;0.70;;;;;;;14.90;100.00;98548.00;4846544;28;103785;-76
2021/07/01 00:27:28;;;;;;;1.50;0.60;;;;;;;14.95;99.47;98550.22;4845835;28;103900;-76
2021/07/01 00:29:57;;;;;;;0.90;0.60;;;;;;;14.94;98.81;98548.53;4859719;28;103021;-76
2021/07/01 00:32:25;;;;;;;0.80;0.75;;;;;;;14.97;98.54;98537.59;4852079;28;102956;-76
2021/07/01 00:34:54;;;;;;;0.83;0.80;;;;;;;15.04;98.83;98549.38;4858898;28;103916;-76
2021/07/01 00:37:23;;;;;;;0.80;0.80;;;;;;;14.82;99.41;98557.66;4858013;28;103148;-76
2021/07/01 00:39:51;;;;;;;0.70;0.70;;;;;;;14.88;99.73;98557.06;4861003;28;103011;-76
2021/07/01 00:42:19;;;;;;;0.60;0.60;;;;;;;14.89;99.71;98561.41;4866077;28;103099;-76
2021/07/01 00:44:47;;;;;;;1.60;0.70;;;;;;;14.88;99.04;98570.38;4854073;28;104074;-76
2021/07/01 00:47:15;;;;;;;1.87;1.13;;;;;;;14.84;99.67;98553.88;4855703;28;104837;-76
2021/07/01 00:49:44;;;;;;;1.10;0.90;;;;;;;14.93;99.84;98552.19;4864396;28;102859;-76
2021/07/01 00:52:13;;;;;;;1.73;1.00;;;;;;;15.00;99.61;98554.13;4850887;28;103101;-76
2021/07/01 00:54:43;;;;;;;0.80;0.73;;;;;;;14.95;99.78;98556.38;4831443;29;104533;-76
2021/07/01 00:57:11;;;;;;;1.83;0.90;;;;;;;14.93;100.00;98552.19;4856371;28;103802;-76
2021/07/01 00:59:39;;;;;;;2.07;1.00;;;;;;;14.94;99.67;98559.16;4845438;28;103148;-76
2021/07/01 01:02:08;;;;;;;2.07;0.80;;;;;;;14.99;100.00;98557.75;4826773;28;106574;-76
2021/07/01 01:04:36;;;;;;;1.27;1.13;;;;;;;14.80;99.57;98556.94;4837246;28;104361;-76
2021/07/01 01:07:04;;;;;;;1.23;1.07;;;;;;;14.85;99.80;98570.66;4836259;28;103357;-76
2021/07/01 01:09:34;;;;;;;1.10;0.90;;;;;;;14.94;99.57;98559.16;4828150;29;103123;-76
2021/07/01 01:12:02;;;;;;;2.13;0.87;;;;;;;14.96;99.11;98559.88;4854388;28;103301;-76
2021/07/01 01:14:30;;;;;;;1.03;0.97;;;;;;;15.03;97.93;98560.97;4846330;28;104104;-75
2021/07/01 01:17:03;;;;;;;0.50;0.50;;;;;;;15.07;98.77;98562.38;4865760;28;104761;-76
2021/07/01 01:19:32;;;;;;;0.97;0.87;;;;;;;15.19;98.79;98557.72;4834419;28;103137;-76
2021/07/01 01:22:02;;;;;;;0.87;0.87;;;;;;;15.16;98.41;98563.34;4865340;28;103378;-76
2021/07/01 01:24:34;;;;;;;1.10;1.00;;;;;;;15.19;98.50;98563.88;4842321;28;114261;-76
2021/07/01 01:27:03;;;;;;;0.90;0.90;;;;;;;15.20;98.23;98554.94;4831049;28;104505;-76
2021/07/01 01:29:31;;;;;;;3.63;1.77;;;;;;;15.13;97.89;98559.13;4865252;28;103131;-76
2021/07/01 01:31:59;;;;;;;2.20;1.70;;;;;;;15.05;98.14;98556.34;4858191;28;103752;-76
2021/07/01 01:34:27;;;;;;;1.70;1.60;;;;;;;15.05;98.17;98564.34;4865027;28;103854;-76
2021/07/01 01:36:55;;;;;;;1.37;1.27;;;;;;;15.15;97.57;98554.53;4851333;28;104694;-76
2021/07/01 01:39:24;;;;;;;1.60;1.50;;;;;;;15.16;96.46;98563.34;4854885;28;102779;-76
2021/07/01 01:42:02;;;;;;;1.43;1.30;;;;;;;15.19;97.05;98563.03;4860058;28;102951;-76
2021/07/01 01:44:31;;;;;;;1.50;1.40;;;;;;;15.18;97.58;98562.22;4844791;28;107677;-76
2021/07/01 01:46:59;;;;;;;1.50;1.40;;;;;;;15.17;97.50;98557.88;4850720;28;103413;-76
2021/07/01 01:49:28;;;;;;;2.53;1.73;;;;;;;15.12;98.66;98562.78;4865123;28;103036;-76
2021/07/01 01:51:56;;;;;;;1.83;1.73;;;;;;;15.10;97.86;98556.78;4862674;28;103475;-76
2021/07/01 01:54:25;;;;;;;2.00;1.90;;;;;;;15.00;97.31;98564.75;4842152;28;106006;-76
2021/07/01 01:56:53;;;;;;;1.43;1.30;;;;;;;15.12;97.86;98568.13;4847696;28;105812;-76
2021/07/01 01:59:40;;;;;;;1.73;1.63;;;;;;;15.12;97.29;98564.63;4856351;28;103070;-76
2021/07/01 02:02:26;;;;;;;3.53;1.87;;;;;;;15.09;97.26;98563.06;4834659;28;103635;-76
2021/07/01 02:05:20;;;;;;;1.80;1.57;;;;;;;15.14;96.97;98555.50;4852581;28;103418;-75
2021/07/01 02:07:49;;;;;;;1.83;1.73;;;;;;;15.08;96.90;98561.38;4838647;28;103265;-76
2021/07/01 02:10:33;;;;;;;1.63;1.30;;;;;;;15.08;97.06;98564.06;4830225;28;103097;-76
2021/07/01 02:13:01;;;;;;;1.70;1.60;;;;;;;15.16;97.23;98564.19;4852915;28;103321;-76
2021/07/01 02:15:30;;;;;;;1.70;1.60;;;;;;;15.23;96.86;98559.97;4841003;28;104770;-76
2021/07/01 02:17:58;;;;;;;1.37;1.20;;;;;;;15.24;96.47;98558.16;4840289;28;103843;-77
2021/07/01 02:20:29;;;;;;;1.50;1.40;;;;;;;15.28;96.20;98567.50;4846773;28;103234;-76
2021/07/01 02:22:58;;;;;;;1.97;1.20;;;;;;;15.24;97.05;98563.47;4858145;28;102731;-76
2021/07/01 02:25:37;;;;;;;1.73;1.30;;;;;;;15.29;96.42;98559.41;4842019;28;104571;-76
2021/07/01 02:28:17;;;;;;;2.03;1.83;;;;;;;15.10;97.07;98564.78;4858813;28;104371;-79
2021/07/01 02:31:08;;;;;;;1.53;1.43;;;;;;;15.05;97.33;98572.31;4818041;28;103266;-76
2021/07/01 02:33:39;;;;;;;1.10;1.00;;;;;;;15.10;96.96;98570.09;4862726;28;103072;-76
2021/07/01 02:36:08;;;;;;;1.80;1.33;;;;;;;15.13;97.55;98566.31;4843593;28;105996;-76
2021/07/01 02:38:56;;;;;;;2.17;1.50;;;;;;;15.16;98.01;98564.19;4840238;28;103680;-76
2021/07/01 02:41:25;;;;;;;1.67;1.23;;;;;;;15.07;97.25;98567.72;4853897;28;102857;-76
2021/07/01 02:43:57;;;;;;;1.40;1.30;;;;;;;15.13;97.41;98564.47;4837633;28;103274;-76
2021/07/01 02:46:44;;;;;;;1.00;1.00;;;;;;;15.13;96.86;98569.78;4863539;28;103320;-76
2021/07/01 02:49:19;;;;;;;1.37;1.20;;;;;;;15.17;97.13;98568.53;4846251;28;103750;-76
2021/07/01 02:51:55;;;;;;;1.40;1.30;;;;;;;15.03;97.12;98560.97;4847559;28;102704;-76
2021/07/01 02:54:23;;;;;;;2.47;1.43;;;;;;;14.86;98.11;98573.19;4867046;28;102787;-76
2021/07/01 02:56:53;;;;;;;1.43;1.33;;;;;;;14.93;97.57;98568.16;4852381;28;103963;-76
2021/07/01 02:59:22;;;;;;;1.60;1.50;;;;;;;15.01;96.60;98571.78;4856723;28;104839;-76
2021/07/01 03:02:15;;;;;;;1.50;1.40;;;;;;;15.00;96.76;98574.56;4837752;29;103360;-76
2021/07/01 03:05:04;;;;;;;2.03;1.90;;;;;;;14.93;95.84;98581.44;4833078;28;103557;-76
2021/07/01 03:07:32;;;;;;;4.50;2.23;;;;;;;14.93;95.97;98578.78;4838591;28;104870;-76
2021/07/01 03:10:02;;;;;;;1.80;1.70;;;;;;;15.02;96.45;98572.59;4841425;28;105335;-76
2021/07/01 03:12:34;;;;;;;2.20;2.00;;;;;;;14.98;96.20;98576.53;4835158;28;103290;-76
2021/07/01 03:15:02;;;;;;;2.87;2.13;;;;;;;14.99;95.46;98576.38;4857952;28;103193;-77
2021/07/01 03:17:30;;;;;;;2.60;2.27;;;;;;;14.91;95.87;98575.41;4833087;28;104222;-76
2021/07/01 03:20:00;;;;;;;3.00;1.63;;;;;;;15.00;96.19;98575.41;4851760;28;103684;-76
2021/07/01 03:22:46;;;;;;;3.00;1.83;;;;;;;14.96;97.65;98570.53;4842083;28;102882;-77
2021/07/01 03:25:14;;;;;;;1.80;1.70;;;;;;;14.96;97.20;98573.19;4859705;28;102692;-77
2021/07/01 03:27:44;;;;;;;2.20;2.00;;;;;;;14.94;97.29;98577.78;4823108;28;103979;-76
2021/07/01 03:30:13;;;;;;;1.67;1.57;;;;;;;14.87;98.03;98574.03;4837983;28;104372;-76
2021/07/01 03:32:44;;;;;;;1.60;1.50;;;;;;;14.76;98.58;98574.16;4837952;28;103241;-76
2021/07/01 03:35:13;;;;;;;1.80;1.20;;;;;;;14.82;98.72;98570.94;4863172;28;103231;-77
2021/07/01 03:38:00;;;;;;;1.33;1.10;;;;;;;14.84;99.00;98576.97;4848833;28;103498;-76
2021/07/01 03:40:36;;;;;;;1.70;1.20;;;;;;;14.89;99.30;98578.22;4819876;29;102884;-76
2021/07/01 03:43:05;;;;;;;1.27;1.17;;;;;;;14.86;98.86;98575.84;4848781;28;102967;-77
2021/07/01 03:45:35;;;;;;;2.10;1.17;;;;;;;14.85;98.84;98579.47;4855182;28;102805;-76
2021/07/01 03:48:11;;;;;;;1.10;0.97;;;;;;;14.70;100.00;98582.69;4847325;29;103404;-80
2021/07/01 03:50:53;;;;;;;1.00;0.90;;;;;;;14.86;99.77;98581.16;4863639;29;104523;-79
2021/07/01 03:53:52;;;;;;;2.97;1.07;;;;;;;14.75;99.63;98580.44;4843114;29;102467;-78
2021/07/01 03:56:20;;;;;;;1.30;1.20;;;;;;;14.66;100.00;98581.28;4824414;29;102802;-78
2021/07/01 03:58:49;;;;;;;1.63;1.10;;;;;;;14.77;100.00;98579.31;4852037;29;103983;-78
2021/07/01 04:01:39;;;;;;;1.83;1.10;;;;;;;14.74;100.00;98584.06;4848660;29;106799;-82
2021/07/01 04:04:09;;;;;;;1.00;0.87;;;;;;;14.77;99.53;98583.81;4854363;29;102535;-79
2021/07/01 04:06:38;;;;;;;0.70;0.70;;;;;;;14.80;98.84;98583.53;4842052;28;103032;-77
2021/07/01 04:09:07;;;;;;;1.77;0.97;;;;;;;14.81;98.76;98587.88;4853533;28;103378;-79
2021/07/01 04:11:44;;;;;;;3.70;1.07;;;;;;;14.86;99.24;98593.59;4820353;29;105747;-78
2021/07/01 04:14:17;;;;;;;0.80;0.80;;;;;;;14.79;98.49;98592.50;4853444;23;105554;-79
2021/07/01 04:17:04;;;;;;;0.67;0.63;;;;;;;14.80;99.32;98599.47;4832136;29;102980;-79
2021/07/01 04:20:01;;;;;;;1.83;0.60;;;;;;;14.84;98.17;98598.25;4837859;29;104268;-78
2021/07/01 04:23:05;;;;;;;0.50;0.50;;;;;;;14.78;98.50;98604.09;4811469;29;103888;-78
2021/07/01 04:26:08;;;;;;;0.70;0.60;;;;;;;14.76;98.30;98603.41;4807939;29;102704;-77
2021/07/01 04:28:37;;;;;;;1.17;0.60;;;;;;;14.77;98.07;98610.41;4808594;29;103416;-77
2021/07/01 04:31:10;;;;;;;0.90;0.90;;;;;;;14.89;98.01;98612.78;4831583;29;106574;-78
2021/07/01 04:33:58;;;;;;;1.17;0.70;;;;;;;14.90;98.00;98601.19;4817370;29;106935;-79
2021/07/01 04:36:30;;;;;;;2.60;0.70;;;;;;;14.66;99.01;98602.56;4831661;29;102576;-78
2021/07/01 04:38:59;;;;;;;1.60;0.80;;;;;;;14.70;99.15;98609.28;4834517;29;102643;-78
2021/07/01 04:41:32;;;;;;;1.13;0.60;;;;;;;14.80;98.90;98607.47;4831857;29;104040;-78
2021/07/01 04:44:00;;;;;;;1.13;0.80;;;;;;;14.86;98.48;98609.56;4833757;29;103878;-77
2021/07/01 04:47:08;;;;;;;0.60;0.60;;;;;;;14.93;98.37;98605.38;4834282;29;102531;-76
2021/07/01 04:49:37;;;;;;;0.93;0.70;;;;;;;15.02;97.61;98609.84;4834904;29;109942;-75
2021/07/01 04:52:23;;;;;;;0.60;0.50;;;;;;;15.07;98.17;98607.63;4836697;29;103473;-76
2021/07/01 04:55:26;;;;;;;2.03;0.73;;;;;;;15.15;97.13;98605.09;4814988;29;107079;-77
2021/07/01 04:58:30;;;;;;;1.37;0.60;;;;;;;15.20;96.57;98608.16;4838695;29;102477;-79
2021/07/01 05:01:18;;;;;;;0.67;0.40;;;;;;;15.27;95.71;98606.59;4823882;29;103120;-77
2021/07/01 05:04:10;;;;;;;1.43;0.67;;;;;;;15.28;95.27;98602.13;4836092;29;104064;-77
2021/07/01 05:06:39;;;;;;;0.50;0.50;;;;;;;15.33;95.19;98603.38;4825381;29;104318;-76
2021/07/01 05:09:08;;;;;;;1.30;0.70;;;;;;;15.10;95.77;98610.81;4815516;29;103340;-77
2021/07/01 05:11:38;;;;;;;0.80;0.60;;;;;;;15.14;96.46;98614.03;4794315;29;103398;-77
2021/07/01 05:14:07;;;;;;;0.60;0.60;;;;;;;15.18;96.15;98612.78;4804820;29;103939;-79
2021/07/01 05:16:35;;;;;;;0.77;0.60;;;;;;;15.14;95.66;98619.38;4820852;29;103724;-75
2021/07/01 05:19:03;;;;;;;2.53;0.60;;;;;;;15.14;96.69;98619.38;4830027;29;103178;-75
2021/07/01 05:21:48;;;;;;;0.87;0.70;;;;;;;15.25;96.11;98611.22;4820432;29;103382;-75
2021/07/01 05:24:35;;;;;;;0.77;0.53;;;;;;;15.30;96.15;98614.28;4834840;29;103779;-74
2021/07/01 05:27:21;;;;;;;0.60;0.60;;;;;;;15.12;97.61;98613.34;4818312;29;103874;-75
2021/07/01 05:30:14;;;;;;;0.93;0.40;;;;;;;15.19;97.79;98619.78;4808922;29;103246;-75
2021/07/01 05:33:08;;;;;;;0.90;0.70;;;;;;;15.18;97.66;98618.13;4824257;29;103125;-75
2021/07/01 05:35:40;;;;;;;0.47;0.43;;;;;;;15.22;97.55;98611.50;4841197;29;103837;-75
2021/07/01 05:38:10;;;;;;;1.97;0.60;;;;;;;15.19;96.87;98622.44;4834172;29;104050;-76
2021/07/01 05:40:38;;;;;;;1.27;0.73;;;;;;;14.96;98.46;98621.06;4812756;28;103812;-77
2021/07/01 05:43:08;;;;;;;2.07;0.73;;;;;;;15.17;99.08;98610.25;4832973;29;103247;-79
2021/07/01 05:45:36;;;;;;;1.57;0.80;;;;;;;15.10;99.01;98617.97;4830665;29;103881;-79
2021/07/01 05:48:06;;;;;;;1.03;0.60;;;;;;;15.26;98.99;98618.25;4830877;29;105126;-79
2021/07/01 05:50:41;;;;;;;0.50;0.50;;;;;;;15.14;99.54;98621.19;4830954;29;103265;-78
2021/07/01 05:53:16;;;;;;;2.73;0.80;;;;;;;15.15;99.56;98621.06;4812522;29;102754;-78
2021/07/01 05:55:44;;;;;;;1.37;0.70;;;;;;;15.30;97.92;98619.63;4811891;29;104671;-79
2021/07/01 05:58:12;;;;;;;0.70;0.70;;;;;;;15.25;98.02;98621.88;4837848;29;104797;-78
2021/07/01 06:00:40;;;;;;;2.90;0.80;;;;;;;15.12;98.33;98624.00;4838735;29;102564;-79
2021/07/01 06:03:08;;;;;;;1.00;0.90;;;;;;;15.16;98.03;98633.34;4827407;29;102756;-80
2021/07/01 06:05:37;;;;;;;3.30;1.13;;;;;;;15.28;97.85;98629.56;4830537;29;104641;-79
2021/07/01 06:08:29;;;;;;;0.87;0.80;;;;;;;15.41;97.62;98630.09;4812074;29;103622;-79
2021/07/01 06:11:02;;;;;;;0.57;0.50;;;;;;;15.44;97.03;98628.97;4825998;29;102582;-79
2021/07/01 06:13:31;;;;;;;0.97;0.73;;;;;;;15.50;96.42;98634.63;4830596;29;103068;-79
2021/07/01 06:15:59;;;;;;;2.53;0.90;;;;;;;15.51;96.20;98632.78;4831053;29;104431;-79
2021/07/01 06:18:27;;;;;;;0.50;0.50;;;;;;;15.55;95.73;98629.69;4832864;29;104987;-79
2021/07/01 06:20:55;;;;;;;1.33;0.60;;;;;;;15.46;96.28;98637.69;4834686;29;102651;-79
2021/07/01 06:23:25;;;;;;;0.87;0.80;;;;;;;15.56;96.46;98639.38;4834484;29;102620;-79
2021/07/01 06:25:54;;;;;;;1.27;0.80;;;;;;;15.45;96.52;98636.84;4839191;29;104503;-79
2021/07/01 06:28:23;;;;;;;0.80;0.80;;;;;;;15.44;96.28;98640.47;4840617;29;104736;-79
2021/07/01 06:30:51;;;;;;;0.60;0.60;;;;;;;15.48;96.42;98643.72;4815627;29;102633;-79
2021/07/01 06:33:20;;;;;;;0.90;0.80;;;;;;;15.49;95.87;98646.28;4815653;29;102695;-79
2021/07/01 06:35:50;;;;;;;0.90;0.70;;;;;;;15.53;95.24;98644.97;4822278;29;104082;-79
2021/07/01 06:38:31;;;;;;;1.43;0.70;;;;;;;15.55;95.51;98639.53;4844208;29;104325;-79
2021/07/01 06:41:18;;;;;;;2.10;1.10;;;;;;;15.36;95.07;98643.00;4833582;29;102615;-79
2021/07/01 06:44:07;;;;;;;3.13;1.10;;;;;;;15.41;95.75;98645.25;4834107;29;102592;-79
2021/07/01 06:46:55;;;;;;;0.73;0.73;;;;;;;15.55;95.73;98640.34;4833743;29;103978;-79
2021/07/01 06:49:44;;;;;;;1.40;0.80;;;;;;;15.68;95.08;98650.69;4827182;29;103188;-79
2021/07/01 06:52:30;;;;;;;1.77;0.77;;;;;;;15.65;93.52;98649.16;4833504;29;102622;-79
2021/07/01 06:55:20;;;;;;;0.60;0.60;;;;;;;15.75;93.86;98645.66;4833737;29;103050;-79
2021/07/01 06:58:01;;;;;;;0.90;0.80;;;;;;;15.78;93.41;98655.97;4835845;29;103832;-76
2021/07/01 07:00:29;;;;;;;1.00;0.67;;;;;;;15.88;93.88;98652.34;4817596;29;103130;-76
2021/07/01 07:02:58;;;;;;;1.53;1.00;;;;;;;15.92;92.79;98656.38;4834343;29;102639;-77
2021/07/01 07:05:46;;;;;;;0.60;0.60;;;;;;;15.80;93.32;98660.22;4834805;29;102520;-76
2021/07/01 07:08:23;;;;;;;1.53;1.43;;;;;;;15.59;93.29;98663.06;4817132;29;106815;-76
2021/07/01 07:10:52;;;;;;;2.33;1.13;;;;;;;15.56;94.14;98662.50;4833275;29;103861;-76
2021/07/01 07:13:26;;;;;;;2.87;1.07;;;;;;;15.59;94.11;98665.72;4833350;29;102607;-76
2021/07/01 07:16:00;;;;;;;1.83;0.70;;;;;;;15.72;94.50;98661.91;4833943;29;102662;-76
2021/07/01 07:18:30;;;;;;;1.10;0.90;;;;;;;15.87;93.81;98660.44;4833602;29;104874;-76
2021/07/01 07:21:02;;;;;;;1.77;1.17;;;;;;;15.89;92.96;98663.81;4833232;29;104860;-76
2021/07/01 07:23:32;;;;;;;2.00;1.10;;;;;;;16.12;92.18;98662.47;4815333;29;102455;-76
2021/07/01 07:26:07;;;;;;;2.20;1.40;;;;;;;16.05;90.79;98659.56;4815387;29;102554;-76
2021/07/01 07:28:37;;;;;;;1.40;1.30;;;;;;;16.25;91.37;98660.31;4839199;29;105338;-76
2021/07/01 07:31:40;;;;;;;3.33;1.30;;;;;;;16.24;90.29;98663.97;4833817;29;103257;-77
2021/07/01 07:34:09;;;;;;;1.83;1.47;;;;;;;16.41;91.43;98671.19;4834231;29;102534;-76
2021/07/01 07:36:38;;;;;;;2.43;1.60;;;;;;;16.53;89.61;98670.00;4834662;29;102460;-76
2021/07/01 07:39:07;;;;;;;2.07;1.30;;;;;;;16.54;90.65;98661.03;4833701;29;103853;-76
2021/07/01 07:42:08;;;;;;;2.30;1.27;;;;;;;16.77;88.28;98667.63;4833639;29;103725;-76
2021/07/01 07:44:39;;;;;;;1.90;1.23;;;;;;;16.76;89.96;98668.63;4833437;29;102617;-76
2021/07/01 07:47:15;;;;;;;2.00;1.27;;;;;;;17.14;88.99;98661.34;4833617;29;102683;-76
2021/07/01 07:49:45;;;;;;;2.43;1.53;;;;;;;17.11;87.27;98658.97;4833819;29;103907;-76
2021/07/01 07:52:14;;;;;;;2.03;1.87;;;;;;;16.97;87.29;98656.81;4833568;29;103914;-76
2021/07/01 07:54:48;;;;;;;2.47;1.70;;;;;;;17.22;86.77;98664.06;4834024;29;102440;-76
2021/07/01 07:57:27;;;;;;;1.53;1.43;;;;;;;17.31;85.83;98665.81;4833858;29;102503;-75
2021/07/01 07:59:58;;;;;;;1.60;1.30;;;;;;;17.34;85.55;98661.03;4834062;29;103889;-76
2021/07/01 08:02:56;;;;;;;3.73;2.13;;;;;;;17.20;83.39;98655.38;4833907;29;103741;-76
2021/07/01 08:06:24;;;;;;;1.40;1.30;;;;;;;17.27;83.64;98656.44;4809636;29;102992;-76
2021/07/01 08:08:54;;;;;;;1.63;1.52;;;;;;;17.28;83.95;98660.78;4813749;29;102816;-76
2021/07/01 08:11:23;;;;;;;2.63;1.98;;;;;;;17.35;83.26;98662.69;4823839;29;103429;-76
2021/07/01 08:13:58;;;;;;;1.70;1.50;;;;;;;17.11;82.87;98659.81;4828123;29;104536;-76
2021/07/01 08:16:37;;;;;;;1.65;1.50;;;;;;;17.47;82.75;98660.63;4833593;29;102490;-76
2021/07/01 08:19:24;;;;;;;4.97;2.10;;;;;;;17.40;83.10;98664.91;4833738;29;102563;-76
2021/07/01 08:21:59;;;;;;;2.95;1.70;;;;;;;17.32;81.81;98665.66;4832943;29;104897;-76
2021/07/01 08:24:27;;;;;;;2.97;2.08;;;;;;;17.42;81.45;98662.06;4844350;29;103284;-76
2021/07/01 08:26:56;;;;;;;1.98;1.77;;;;;;;17.26;81.69;98658.25;4851267;29;102569;-76
2021/07/01 08:29:26;;;;;;;1.63;1.50;;;;;;;17.42;80.97;98659.41;4833549;29;102793;-76
2021/07/01 08:31:58;;;;;;;2.65;1.67;;;;;;;17.73;79.98;98650.00;4833764;29;105008;-76
2021/07/01 08:35:03;;;;;;;1.83;1.70;;;;;;;17.72;79.10;98659.00;4817370;29;103792;-76
2021/07/01 08:37:33;;;;;;;1.63;1.52;;;;;;;17.86;82.15;98651.25;4833181;29;102598;-76
2021/07/01 08:45:02;;;;;;;2.00;1.85;;;;;;;17.47;80.76;98665.94;4825181;29;105646;-75
2021/07/01 08:47:44;;;;;;;1.88;1.70;;;;;;;17.78;78.93;98653.03;4794098;29;103580;-76
2021/07/01 08:50:21;;;;;;;2.13;1.80;;;;;;;17.68;77.88;98666.50;4794299;29;102430;-76
2021/07/01 08:56:17;;;;;;;2.00;1.77;;;;;;;17.50;78.39;98665.66;4775116;29;104884;-76
2021/07/01 08:58:48;;;;;;;2.15;1.95;;;;;;;17.72;79.52;98675.00;4775220;29;103961;-76
2021/07/01 09:01:20;;;;;;;9.43;2.20;;;;;;;16.99;80.27;98676.19;4775377;29;102584;-76
2021/07/01 09:03:51;;;;;;;2.05;1.83;;;;;;;17.31;80.83;98668.50;4775740;29;103879;-76
2021/07/01 09:06:24;;;;;;;2.00;1.80;;;;;;;17.54;79.05;98672.41;4796750;29;104055;-76
2021/07/01 09:14:04;;;;;;;3.40;1.48;;;;;;;17.76;78.93;98674.56;4791086;29;102620;-76
2021/07/01 09:16:35;;;;;;;2.17;1.92;;;;;;;17.89;79.31;98669.63;4796418;29;108683;-76
2021/07/01 09:19:18;;;;;;;2.45;1.95;;;;;;;17.71;78.73;98668.03;4796379;29;103945;-77
2021/07/01 09:22:10;;;;;;;2.38;2.17;;;;;;;17.90;79.67;98674.00;4796529;29;102991;-76
2021/07/01 09:24:58;;;;;;;1.88;1.77;;;;;;;18.07;80.30;98674.94;4776488;29;102805;-76
2021/07/01 09:28:12;;;;;;;3.33;2.00;;;;;;;17.77;77.88;98673.56;4795975;29;102511;-76
2021/07/01 09:30:56;;;;;;;2.28;1.90;;;;;;;18.00;79.43;98673.03;4795417;29;103849;-76
2021/07/01 09:33:49;;;;;;;2.05;1.95;;;;;;;17.99;78.02;98677.56;4810738;29;103448;-76
2021/07/01 09:36:26;;;;;;;1.90;1.80;;;;;;;18.10;79.00;98679.13;4811718;29;102728;-76
2021/07/01 09:39:13;;;;;;;2.75;2.20;;;;;;;18.13;77.84;98682.31;4812071;29;102690;-76
2021/07/01 09:42:24;;;;;;;2.60;2.00;;;;;;;18.29;76.17;98673.53;4815379;29;103330;-76
2021/07/01 09:44:53;;;;;;;2.45;2.25;;;;;;;17.85;77.69;98670.13;4800229;29;104193;-77
2021/07/01 09:48:11;;;;;;;1.90;1.80;;;;;;;18.26;78.20;98679.19;4796497;29;102704;-75
2021/07/01 09:55:50;;;;;;;2.40;2.20;;;;;;;18.72;72.20;98678.78;4814028;29;103834;-75
2021/07/01 09:58:31;;;;;;;2.88;2.30;;;;;;;18.45;74.60;98673.59;4814061;29;103692;-76
2021/07/01 10:00:59;;;;;;;2.92;2.20;;;;;;;18.18;75.76;98665.78;4813703;29;102602;-76
2021/07/01 10:03:28;;;;;;;3.25;3.00;;;;;;;17.77;79.64;98676.22;4814285;29;102570;-77
2021/07/01 10:10:46;;;;;;;3.25;2.95;;;;;;;17.92;79.34;98680.00;4813292;29;102898;-78
2021/07/01 10:13:18;;;;;;;3.30;2.85;;;;;;;17.81;79.73;98674.94;4813808;29;102455;-76
2021/07/01 10:15:52;;;;;;;2.55;2.35;;;;;;;17.75;79.00;98672.88;4825735;29;102666;-77
2021/07/01 10:18:22;;;;;;;3.78;2.47;;;;;;;17.93;78.41;98679.03;4828783;29;103831;-76
2021/07/01 10:20:56;;;;;;;2.42;2.22;;;;;;;17.89;79.11;98687.50;4829590;29;104638;-74
2021/07/01 10:23:26;;;;;;;3.92;2.60;;;;;;;17.86;79.03;98688.66;4842862;29;103260;-79
2021/07/01 10:25:56;;;;;;;3.30;3.00;;;;;;;17.14;83.16;98704.03;4843771;29;102841;-75
2021/07/01 10:28:26;;;;;;;4.88;3.30;;;;;;;16.97;86.17;98704.88;4814546;29;108138;-76
2021/07/01 10:31:00;;;;;;;3.42;3.13;;;;;;;16.69;89.66;98704.91;4828159;29;103732;-74
2021/07/01 10:33:30;;;;;;;4.35;3.72;;;;;;;15.97;93.15;98715.38;4826250;29;103208;-74
2021/07/01 10:36:01;;;;;;;4.03;3.38;;;;;;;16.38;93.78;98721.28;4820137;29;103555;-75
2021/07/01 10:38:42;;;;;;;2.15;1.95;;;;;;;16.19;92.25;98711.56;4824819;29;105023;-75
2021/07/01 10:41:11;;;;;;;3.72;1.95;;;;;;;16.09;93.01;98713.38;4831718;29;104032;-76
2021/07/01 10:43:42;;;;;;;2.03;1.80;;;;;;;16.22;91.88;98721.94;4831752;29;103496;-78
2021/07/01 10:46:13;;;;;;;2.10;1.90;;;;;;;16.36;90.67;98726.78;4833357;29;103776;-77
2021/07/01 10:48:56;;;;;;;2.42;1.95;;;;;;;16.32;89.37;98725.38;4832103;29;103821;-77
2021/07/01 10:51:28;;;;;;;2.10;1.90;;;;;;;16.58;90.65;98713.09;4840934;29;103677;-78
2021/07/01 10:54:10;;;;;;;2.08;1.88;;;;;;;16.76;87.60;98719.31;4844853;29;103186;-78
2021/07/01 10:56:43;;;;;;;3.85;3.40;;;;;;;16.99;87.42;98725.06;4824052;29;103051;-79
2021/07/01 10:59:23;;;;;;;2.80;2.60;;;;;;;17.15;87.78;98725.22;4821692;29;104460;-80
2021/07/01 11:02:05;;;;;;;2.92;2.50;;;;;;;17.17;85.80;98733.09;4836415;29;103243;-79
2021/07/01 11:04:34;;;;;;;2.30;2.10;;;;;;;17.40;86.78;98721.81;4813368;29;103334;-79
2021/07/01 11:07:18;;;;;;;2.65;2.45;;;;;;;17.48;85.28;98721.06;4817455;29;105355;-79
2021/07/01 11:09:48;;;;;;;2.38;2.17;;;;;;;17.79;86.43;98711.66;4821755;29;104910;-79
2021/07/01 11:12:20;;;;;;;3.08;2.40;;;;;;;17.77;85.12;98710.97;4827394;29;103228;-80
2021/07/01 11:14:51;;;;;;;3.70;2.28;;;;;;;17.84;82.21;98701.34;4802697;29;103530;-80
2021/07/01 11:17:34;;;;;;;2.47;2.20;;;;;;;18.00;83.76;98700.59;4783782;29;103224;-80
2021/07/01 11:20:14;;;;;;;3.45;2.90;;;;;;;17.89;80.17;98714.22;4805570;29;103453;-81
2021/07/01 11:22:48;;;;;;;3.05;2.72;;;;;;;17.85;80.00;98708.34;4805099;29;103313;-79
2021/07/01 11:25:28;;;;;;;2.40;2.20;;;;;;;18.47;79.47;98698.34;4806211;29;103285;-79
2021/07/01 11:28:16;;;;;;;2.63;2.35;;;;;;;18.29;77.05;98706.47;4804257;29;103221;-79
2021/07/01 11:30:49;;;;;;;4.20;2.72;;;;;;;18.25;77.74;98720.28;4819218;29;103846;-80
2021/07/01 11:33:20;;;;;;;2.30;2.17;;;;;;;18.22;77.16;98709.91;4803256;29;103096;-81
2021/07/01 11:35:50;;;;;;;2.65;2.45;;;;;;;18.11;77.37;98720.88;4818604;29;103029;-79
2021/07/01 11:38:28;;;;;;;2.88;2.63;;;;;;;18.29;77.03;98721.66;4819844;29;103655;-80
2021/07/01 11:40:59;;;;;;;3.60;2.28;;;;;;;18.64;76.30;98710.81;4794162;29;105242;-78
2021/07/01 11:43:28;;;;;;;2.78;2.50;;;;;;;18.26;76.40;98721.97;4803861;29;103960;-80
2021/07/01 11:45:57;;;;;;;2.42;2.22;;;;;;;18.48;77.08;98721.47;4797339;29;108175;-78
2021/07/01 11:48:29;;;;;;;2.72;2.28;;;;;;;18.42;75.18;98727.41;4803107;29;103165;-79
2021/07/01 11:50:59;;;;;;;3.05;2.35;;;;;;;18.65;74.74;98723.22;4805279;29;103333;-79
2021/07/01 11:53:27;;;;;;;3.15;2.80;;;;;;;18.95;75.14;98727.16;4778613;29;103278;-80
2021/07/01 11:55:59;;;;;;;4.03;2.30;;;;;;;19.01;74.62;98724.66;4802967;29;103105;-80
2021/07/01 11:58:31;;;;;;;3.45;2.22;;;;;;;18.92;75.03;98714.94;4810593;29;103285;-80
2021/07/01 12:00:59;;;;;;;2.78;2.58;;;;;;;18.76;74.29;98714.88;4802651;29;103757;-79
2021/07/01 12:03:31;;;;;;;2.72;2.33;;;;;;;18.79;74.86;98719.91;4807197;29;104434;-80
2021/07/01 12:06:00;;;;;;;3.17;2.70;;;;;;;18.63;74.10;98717.19;4802745;29;104005;-79
2021/07/01 12:08:28;;;;;;;2.97;2.45;;;;;;;18.52;74.20;98722.84;4801399;29;103665;-80
2021/07/01 12:11:00;;;;;;;2.80;2.60;;;;;;;18.57;75.01;98722.34;4803018;29;110077;-79
2021/07/01 12:13:43;;;;;;;3.63;2.85;;;;;;;18.23;73.37;98727.66;4794587;29;103861;-79
2021/07/01 12:16:14;;;;;;;3.85;2.58;;;;;;;18.38;74.73;98731.41;4817728;29;103134;-81
2021/07/01 12:18:58;;;;;;;2.83;2.63;;;;;;;18.43;73.60;98734.44;4821286;29;103349;-81
2021/07/01 12:21:29;;;;;;;3.15;2.60;;;;;;;18.73;73.22;98720.56;4821459;29;105515;-82
2021/07/01 12:23:58;;;;;;;3.05;2.67;;;;;;;19.08;72.72;98723.03;4828105;29;103285;-79